Time;durP1;ratioP1;P1;durP2;ratioP2;P2;SDS_P1;SDS_P2;PMS_P1;PMS_P2;Temp;Humidity;BMP_temperature;BMP_pressure;BME280_temperature;BME280_humidity;BME280_pressure;Samples;Min_cycle;Max_cycle;Signal;HPM_P1;HPM_P2
2023/01/28 00:00:30;;;;;;;6.57;5.97;;;;;;;;;;5043563;28;20202;-84
2023/01/28 00:02:56;;;;;;;6.77;6.07;;;;;;;;;;5028697;28;20208;-84
2023/01/28 00:05:22;;;;;;;6.17;5.57;;;;;;;;;;5026968;28;20274;-84
2023/01/28 00:07:52;;;;;;;6.20;5.60;;;;;;;;;;5029103;28;20648;-84
2023/01/28 00:10:18;;;;;;;6.20;5.60;;;;;;;;;;5036056;28;20177;-85
2023/01/28 00:12:44;;;;;;;5.93;5.33;;;;;;;;;;5031251;28;20186;-84
2023/01/28 00:15:11;;;;;;;6.83;6.23;;;;;;;;;;5029275;28;20216;-84
2023/01/28 00:17:37;;;;;;;7.63;6.40;;;;;;;;;;5029980;28;20619;-84
2023/01/28 00:20:04;;;;;;;7.33;6.17;;;;;;;;;;5029241;28;20246;-84
2023/01/28 00:22:31;;;;;;;8.10;6.57;;;;;;;;;;5041250;28;20227;-84
2023/01/28 00:24:57;;;;;;;6.47;5.87;;;;;;;;;;5030000;28;20213;-84
2023/01/28 00:27:23;;;;;;;9.13;6.10;;;;;;;;;;5025125;28;20177;-84
2023/01/28 00:29:50;;;;;;;9.30;6.93;;;;;;;;;;5030164;28;20239;-84
2023/01/28 00:32:16;;;;;;;6.40;5.80;;;;;;;;;;5028760;28;20189;-85
2023/01/28 00:34:42;;;;;;;7.37;6.67;;;;;;;;;;5029987;28;20190;-84
2023/01/28 00:37:08;;;;;;;7.00;6.30;;;;;;;;;;5026451;28;20253;-84
2023/01/28 00:39:34;;;;;;;7.27;6.57;;;;;;;;;;5030464;28;20295;-85
2023/01/28 00:42:00;;;;;;;7.60;6.90;;;;;;;;;;5019719;28;20210;-85
2023/01/28 00:44:26;;;;;;;6.50;5.90;;;;;;;;;;5023484;28;20206;-84
2023/01/28 00:46:52;;;;;;;7.47;6.67;;;;;;;;;;5028731;28;20174;-84
2023/01/28 00:49:18;;;;;;;7.50;6.70;;;;;;;;;;5041787;28;20197;-84
2023/01/28 00:51:44;;;;;;;7.63;6.93;;;;;;;;;;5028761;28;20202;-85
2023/01/28 00:54:12;;;;;;;8.33;6.57;;;;;;;;;;5027074;28;20229;-84
2023/01/28 00:56:38;;;;;;;7.80;6.83;;;;;;;;;;5028355;28;20664;-85
2023/01/28 00:59:04;;;;;;;7.27;6.57;;;;;;;;;;5036141;28;20870;-85
2023/01/28 01:01:30;;;;;;;7.60;6.90;;;;;;;;;;5034109;28;20185;-83
2023/01/28 01:04:01;;;;;;;7.80;7.03;;;;;;;;;;5026826;28;20212;-85
2023/01/28 01:06:28;;;;;;;7.90;7.10;;;;;;;;;;5030788;28;20210;-84
2023/01/28 01:08:54;;;;;;;6.87;6.17;;;;;;;;;;5030931;28;20729;-85
2023/01/28 01:11:20;;;;;;;7.60;6.80;;;;;;;;;;5031781;28;20209;-86
2023/01/28 01:13:56;;;;;;;8.10;7.27;;;;;;;;;;5035475;28;20178;-85
2023/01/28 01:16:24;;;;;;;7.97;7.17;;;;;;;;;;5031969;28;20244;-85
2023/01/28 01:18:51;;;;;;;7.50;6.80;;;;;;;;;;5021841;28;20190;-85
2023/01/28 01:21:19;;;;;;;8.20;7.27;;;;;;;;;;5029349;28;20549;-85
2023/01/28 01:23:45;;;;;;;7.60;6.90;;;;;;;;;;5030960;28;20185;-86
2023/01/28 01:26:11;;;;;;;9.00;7.53;;;;;;;;;;5032295;28;20209;-85
2023/01/28 01:28:37;;;;;;;9.13;7.30;;;;;;;;;;5033507;28;20185;-84
2023/01/28 01:31:08;;;;;;;8.13;7.33;;;;;;;;;;5034656;28;20182;-85
2023/01/28 01:33:34;;;;;;;8.77;7.87;;;;;;;;;;5031157;28;20273;-85
2023/01/28 01:36:00;;;;;;;9.00;8.07;;;;;;;;;;5033788;28;20181;-84
2023/01/28 01:38:27;;;;;;;9.17;7.70;;;;;;;;;;5034250;28;20186;-85
2023/01/28 01:40:57;;;;;;;8.13;7.33;;;;;;;;;;5026007;28;20209;-85
2023/01/28 01:43:23;;;;;;;9.40;8.50;;;;;;;;;;5030795;28;20190;-86
2023/01/28 01:45:51;;;;;;;9.57;8.40;;;;;;;;;;5034158;28;20190;-84
2023/01/28 01:48:19;;;;;;;9.00;8.07;;;;;;;;;;5050009;28;20193;-85
2023/01/28 01:50:51;;;;;;;9.43;8.53;;;;;;;;;;5036065;28;20372;-85
2023/01/28 01:53:18;;;;;;;9.60;8.63;;;;;;;;;;5036459;28;20241;-86
2023/01/28 01:55:49;;;;;;;9.23;8.33;;;;;;;;;;5026034;28;20220;-85
2023/01/28 01:58:18;;;;;;;8.83;8.03;;;;;;;;;;5033334;28;20303;-85
2023/01/28 02:00:44;;;;;;;8.30;7.50;;;;;;;;;;5031167;28;20185;-84
2023/01/28 02:03:11;;;;;;;9.50;8.33;;;;;;;;;;5043289;28;20186;-85
2023/01/28 02:05:37;;;;;;;8.83;8.03;;;;;;;;;;5024350;28;20206;-85
2023/01/28 02:08:26;;;;;;;9.47;8.53;;;;;;;;;;5041920;28;20181;-84
2023/01/28 02:10:54;;;;;;;8.40;7.60;;;;;;;;;;5033436;28;20232;-85
2023/01/28 02:13:22;;;;;;;9.50;8.60;;;;;;;;;;5028739;28;20197;-86
2023/01/28 02:15:49;;;;;;;9.20;8.30;;;;;;;;;;5037322;28;20657;-85
2023/01/28 02:18:15;;;;;;;10.73;8.20;;;;;;;;;;5033213;28;20228;-84
2023/01/28 02:20:41;;;;;;;8.73;7.83;;;;;;;;;;5036696;28;20253;-85
2023/01/28 02:23:19;;;;;;;8.33;7.53;;;;;;;;;;5029128;28;20209;-86
2023/01/28 02:25:45;;;;;;;8.93;8.10;;;;;;;;;;5043361;28;20995;-85
2023/01/28 02:28:30;;;;;;;8.33;7.63;;;;;;;;;;5022152;28;20566;-85
2023/01/28 02:31:11;;;;;;;8.50;7.60;;;;;;;;;;5029947;28;20701;-85
2023/01/28 02:33:47;;;;;;;7.47;6.77;;;;;;;;;;5043456;28;20268;-85
2023/01/28 02:36:16;;;;;;;7.87;7.17;;;;;;;;;;5029938;28;20207;-84
2023/01/28 02:38:45;;;;;;;7.63;6.50;;;;;;;;;;5032932;28;20194;-85
2023/01/28 02:41:15;;;;;;;7.23;6.53;;;;;;;;;;5028558;28;20181;-85
2023/01/28 02:43:42;;;;;;;7.33;6.63;;;;;;;;;;5032850;28;20644;-85
2023/01/28 02:48:57;;;;;;;7.73;7.00;;;;;;;;;;5033696;28;20259;-85
2023/01/28 02:51:29;;;;;;;7.33;6.60;;;;;;;;;;5029809;28;20521;-85
2023/01/28 02:54:03;;;;;;;6.77;6.07;;;;;;;;;;5032199;28;20224;-85
2023/01/28 02:56:45;;;;;;;6.77;6.07;;;;;;;;;;5046502;28;20223;-84
2023/01/28 02:59:29;;;;;;;6.90;6.20;;;;;;;;;;5030173;28;20217;-86
2023/01/28 03:02:15;;;;;;;7.67;6.50;;;;;;;;;;5029070;28;20179;-84
2023/01/28 03:04:54;;;;;;;7.63;6.90;;;;;;;;;;5033328;28;20462;-85
2023/01/28 03:07:22;;;;;;;7.40;6.73;;;;;;;;;;5030719;28;20188;-84
2023/01/28 03:09:50;;;;;;;7.60;6.90;;;;;;;;;;5028778;28;20630;-86
2023/01/28 03:37:46;;;;;;;7.30;6.60;;;;;;;;;;5020554;28;20470;-85
2023/01/28 03:40:12;;;;;;;7.70;6.87;;;;;;;;;;5032500;28;20611;-84
2023/01/28 03:42:38;;;;;;;7.50;6.80;;;;;;;;;;5035114;28;20279;-83
2023/01/28 03:45:06;;;;;;;7.30;6.60;;;;;;;;;;5020989;28;20252;-85
2023/01/28 03:47:33;;;;;;;7.50;6.70;;;;;;;;;;5030070;28;20239;-85
2023/01/28 03:49:59;;;;;;;7.90;7.10;;;;;;;;;;5031757;28;20174;-84
2023/01/28 03:52:30;;;;;;;7.90;7.10;;;;;;;;;;5029239;28;20186;-84
2023/01/28 03:54:56;;;;;;;7.53;6.70;;;;;;;;;;5027958;28;20574;-84
2023/01/28 03:57:24;;;;;;;7.83;6.57;;;;;;;;;;5032400;28;20185;-84
2023/01/28 03:59:51;;;;;;;6.83;6.13;;;;;;;;;;5031136;28;20235;-86
2023/01/28 04:02:18;;;;;;;7.73;7.03;;;;;;;;;;5029458;28;20339;-85
2023/01/28 04:04:44;;;;;;;7.73;6.93;;;;;;;;;;5032212;28;20220;-84
2023/01/28 04:07:10;;;;;;;7.03;6.33;;;;;;;;;;5027562;28;20523;-85
2023/01/28 04:09:37;;;;;;;7.47;6.70;;;;;;;;;;5042243;28;20181;-85
2023/01/28 04:12:03;;;;;;;7.73;7.03;;;;;;;;;;5030313;28;20639;-85
2023/01/28 04:14:30;;;;;;;7.50;6.80;;;;;;;;;;5026613;28;20195;-84
2023/01/28 04:16:56;;;;;;;8.47;7.60;;;;;;;;;;5027346;28;20182;-84
2023/01/28 04:19:22;;;;;;;6.63;5.97;;;;;;;;;;5028888;28;20189;-84
2023/01/28 04:21:49;;;;;;;7.67;6.93;;;;;;;;;;5035085;28;20181;-87
2023/01/28 04:24:16;;;;;;;8.30;7.40;;;;;;;;;;5042046;28;20268;-84
2023/01/28 04:26:42;;;;;;;8.60;7.27;;;;;;;;;;5034695;28;20236;-84
2023/01/28 04:29:08;;;;;;;6.80;6.20;;;;;;;;;;5046296;28;20216;-84
2023/01/28 04:31:34;;;;;;;8.37;7.63;;;;;;;;;;5031273;28;20185;-85
2023/01/28 04:34:01;;;;;;;6.90;6.30;;;;;;;;;;5031171;28;20477;-84
2023/01/28 04:36:27;;;;;;;7.33;6.63;;;;;;;;;;5035972;28;20288;-84
2023/01/28 04:38:53;;;;;;;7.40;6.70;;;;;;;;;;5027974;28;20444;-84
2023/01/28 04:41:19;;;;;;;7.33;6.63;;;;;;;;;;5026623;28;20182;-85
2023/01/28 04:43:48;;;;;;;8.27;7.50;;;;;;;;;;5047742;28;20216;-84
2023/01/28 04:46:14;;;;;;;7.30;6.60;;;;;;;;;;5033566;28;20201;-84
2023/01/28 04:48:40;;;;;;;8.17;7.37;;;;;;;;;;5037538;28;20428;-85
2023/01/28 04:51:06;;;;;;;8.20;7.40;;;;;;;;;;5033889;28;20178;-84
2023/01/28 04:53:32;;;;;;;7.83;7.03;;;;;;;;;;5032387;28;20233;-85
2023/01/28 04:55:58;;;;;;;7.93;7.10;;;;;;;;;;5031502;28;20625;-85
2023/01/28 04:58:25;;;;;;;8.03;7.23;;;;;;;;;;5032575;28;20610;-84
2023/01/28 05:00:55;;;;;;;9.00;7.97;;;;;;;;;;5033434;28;20194;-85
2023/01/28 05:03:22;;;;;;;9.03;6.93;;;;;;;;;;5033048;28;20669;-84
2023/01/28 05:05:48;;;;;;;7.20;6.50;;;;;;;;;;5035630;28;20251;-84
2023/01/28 05:08:14;;;;;;;8.93;8.13;;;;;;;;;;5032494;28;20197;-85
2023/01/28 05:10:40;;;;;;;7.90;7.10;;;;;;;;;;5041845;28;20178;-84
2023/01/28 05:13:06;;;;;;;9.23;7.80;;;;;;;;;;5034385;28;20528;-85
2023/01/28 05:15:32;;;;;;;8.43;7.53;;;;;;;;;;5030902;28;20182;-84
2023/01/28 05:17:58;;;;;;;8.23;7.43;;;;;;;;;;5032305;28;20197;-84
2023/01/28 05:20:24;;;;;;;8.40;7.53;;;;;;;;;;5033934;28;20288;-84
2023/01/28 05:22:51;;;;;;;8.07;7.27;;;;;;;;;;5034786;28;20192;-85
2023/01/28 05:25:17;;;;;;;8.93;8.10;;;;;;;;;;5035737;28;20247;-84
2023/01/28 05:27:43;;;;;;;8.10;7.30;;;;;;;;;;5032749;28;20197;-85
2023/01/28 05:30:09;;;;;;;8.23;7.43;;;;;;;;;;5033213;28;20177;-85
2023/01/28 05:32:35;;;;;;;8.50;7.70;;;;;;;;;;5031657;28;20509;-85
2023/01/28 05:35:01;;;;;;;8.87;7.97;;;;;;;;;;5030834;28;20479;-84
2023/01/28 05:37:27;;;;;;;9.17;8.27;;;;;;;;;;5027924;28;20186;-83
2023/01/28 05:39:53;;;;;;;9.10;8.10;;;;;;;;;;5032675;28;20467;-84
2023/01/28 05:42:21;;;;;;;8.90;8.00;;;;;;;;;;5028246;28;20523;-85
2023/01/28 05:44:47;;;;;;;8.33;7.47;;;;;;;;;;5033786;28;20465;-85
2023/01/28 05:47:16;;;;;;;8.30;7.50;;;;;;;;;;5036220;28;20175;-84
2023/01/28 05:49:42;;;;;;;8.10;7.30;;;;;;;;;;5036060;28;20530;-85
2023/01/28 05:52:08;;;;;;;9.07;8.17;;;;;;;;;;5037004;28;20181;-85
2023/01/28 05:54:34;;;;;;;8.83;7.93;;;;;;;;;;5023372;28;20487;-85
2023/01/28 05:57:00;;;;;;;8.63;7.83;;;;;;;;;;5029642;28;20506;-85
2023/01/28 05:59:26;;;;;;;8.70;7.80;;;;;;;;;;5030638;28;20449;-85
2023/01/28 06:01:52;;;;;;;8.60;7.80;;;;;;;;;;5031315;28;20295;-86
2023/01/28 06:04:19;;;;;;;9.20;8.30;;;;;;;;;;5049086;28;20404;-85
2023/01/28 06:06:45;;;;;;;9.03;8.10;;;;;;;;;;5029412;28;20520;-85
2023/01/28 06:09:11;;;;;;;9.60;8.43;;;;;;;;;;5028372;28;20166;-84
2023/01/28 06:11:37;;;;;;;8.93;8.03;;;;;;;;;;5034161;28;21017;-85
2023/01/28 06:14:03;;;;;;;9.10;8.20;;;;;;;;;;5029618;28;20190;-85
2023/01/28 06:16:29;;;;;;;8.70;7.87;;;;;;;;;;5026075;28;20184;-85
2023/01/28 06:18:55;;;;;;;9.30;8.30;;;;;;;;;;5038292;28;20186;-85
2023/01/28 06:21:21;;;;;;;9.20;8.30;;;;;;;;;;5028250;28;20524;-84
2023/01/28 06:23:47;;;;;;;10.17;8.40;;;;;;;;;;5032999;28;20198;-85
2023/01/28 06:26:13;;;;;;;9.97;8.87;;;;;;;;;;5028762;28;20487;-84
2023/01/28 06:28:39;;;;;;;9.30;7.60;;;;;;;;;;5040982;28;20488;-85
2023/01/28 06:31:06;;;;;;;10.00;8.60;;;;;;;;;;5035570;28;20659;-85
2023/01/28 06:33:32;;;;;;;9.97;8.97;;;;;;;;;;5038424;28;20405;-84
2023/01/28 06:35:58;;;;;;;9.50;8.57;;;;;;;;;;5030713;28;20455;-85
2023/01/28 06:38:24;;;;;;;10.53;9.37;;;;;;;;;;5025181;28;20740;-85
2023/01/28 06:40:51;;;;;;;8.87;7.97;;;;;;;;;;5025742;28;20263;-84
2023/01/28 06:43:17;;;;;;;10.43;8.63;;;;;;;;;;5032391;28;20551;-84
2023/01/28 06:45:43;;;;;;;9.70;8.47;;;;;;;;;;5030759;28;20479;-87
2023/01/28 06:48:09;;;;;;;9.37;8.47;;;;;;;;;;5034008;28;20437;-86
2023/01/28 06:50:35;;;;;;;9.87;8.57;;;;;;;;;;5031098;28;20432;-85
2023/01/28 06:53:01;;;;;;;10.20;9.20;;;;;;;;;;5028670;28;20451;-85
2023/01/28 06:55:27;;;;;;;9.57;8.67;;;;;;;;;;5032418;28;20472;-85
2023/01/28 06:57:53;;;;;;;10.13;9.00;;;;;;;;;;5032263;28;20456;-84
2023/01/28 07:00:19;;;;;;;10.57;9.47;;;;;;;;;;5033076;28;20974;-84
2023/01/28 07:02:45;;;;;;;9.97;8.97;;;;;;;;;;5031729;28;20590;-84
2023/01/28 07:05:11;;;;;;;9.93;8.93;;;;;;;;;;5033007;28;20921;-85
2023/01/28 07:07:37;;;;;;;11.57;10.37;;;;;;;;;;5033727;28;20178;-85
2023/01/28 07:10:03;;;;;;;10.70;9.07;;;;;;;;;;5031514;28;20440;-84
2023/01/28 07:12:30;;;;;;;11.17;10.00;;;;;;;;;;5032009;28;20439;-84
2023/01/28 07:14:56;;;;;;;10.70;9.17;;;;;;;;;;5033440;28;20503;-85
2023/01/28 07:17:22;;;;;;;9.47;8.47;;;;;;;;;;5031217;28;20440;-85
2023/01/28 07:19:48;;;;;;;9.20;8.30;;;;;;;;;;5047293;28;20524;-85
2023/01/28 07:22:14;;;;;;;9.97;8.93;;;;;;;;;;5030943;28;20457;-84
2023/01/28 07:24:40;;;;;;;9.67;8.77;;;;;;;;;;5030217;28;20478;-84
2023/01/28 07:27:06;;;;;;;10.50;9.40;;;;;;;;;;5032395;28;20196;-86
2023/01/28 07:29:32;;;;;;;11.17;9.57;;;;;;;;;;5031944;28;20433;-84
2023/01/28 07:31:58;;;;;;;10.20;9.20;;;;;;;;;;5032421;28;20409;-85
2023/01/28 07:34:25;;;;;;;11.13;9.87;;;;;;;;;;5032274;28;20459;-85
2023/01/28 07:36:51;;;;;;;10.60;9.20;;;;;;;;;;5032996;28;20993;-85
2023/01/28 07:39:17;;;;;;;11.63;10.37;;;;;;;;;;5032494;28;20970;-84
2023/01/28 07:41:43;;;;;;;10.23;9.13;;;;;;;;;;5031137;28;20429;-84
2023/01/28 07:44:09;;;;;;;11.47;10.10;;;;;;;;;;5029891;28;20492;-85
2023/01/28 07:46:35;;;;;;;11.37;10.10;;;;;;;;;;5031035;28;20484;-84
2023/01/28 07:49:01;;;;;;;10.77;9.67;;;;;;;;;;5031700;28;20499;-84
2023/01/28 07:51:27;;;;;;;11.67;10.40;;;;;;;;;;5031437;28;20432;-85
2023/01/28 07:53:53;;;;;;;11.60;9.33;;;;;;;;;;5032593;28;20809;-85
2023/01/28 07:56:19;;;;;;;11.23;10.03;;;;;;;;;;5029159;28;20434;-85
2023/01/28 07:58:48;;;;;;;11.63;10.43;;;;;;;;;;5028629;28;20460;-84
2023/01/28 08:01:14;;;;;;;11.03;9.93;;;;;;;;;;5046283;28;20444;-84
2023/01/28 08:03:40;;;;;;;11.33;10.13;;;;;;;;;;5026866;28;20441;-85
2023/01/28 08:06:06;;;;;;;10.87;9.77;;;;;;;;;;5034155;28;20782;-84
2023/01/28 08:08:33;;;;;;;10.87;9.67;;;;;;;;;;5030148;28;20716;-85
2023/01/28 08:10:59;;;;;;;11.90;10.70;;;;;;;;;;5032324;28;20528;-84
2023/01/28 08:13:25;;;;;;;12.20;10.33;;;;;;;;;;5030342;28;20424;-84
2023/01/28 08:15:54;;;;;;;12.03;10.83;;;;;;;;;;5031704;28;20527;-84
2023/01/28 08:18:20;;;;;;;11.00;9.87;;;;;;;;;;5031252;28;20488;-85
2023/01/28 08:20:47;;;;;;;12.13;10.03;;;;;;;;;;5028661;28;20924;-85
2023/01/28 08:23:14;;;;;;;12.07;10.27;;;;;;;;;;5030146;28;20443;-86
2023/01/28 08:25:40;;;;;;;13.83;9.67;;;;;;;;;;5037868;28;20572;-84
2023/01/28 08:28:07;;;;;;;10.73;9.33;;;;;;;;;;5025279;28;20544;-85
2023/01/28 08:30:33;;;;;;;10.87;9.73;;;;;;;;;;5030876;28;20425;-84
2023/01/28 08:32:59;;;;;;;14.27;10.20;;;;;;;;;;5031642;28;20451;-83
2023/01/28 08:35:26;;;;;;;10.80;9.70;;;;;;;;;;5033092;28;20471;-83
2023/01/28 08:37:53;;;;;;;11.17;9.70;;;;;;;;;;5031741;28;20841;-83
2023/01/28 08:40:19;;;;;;;11.63;10.47;;;;;;;;;;5028342;28;20182;-85
2023/01/28 08:42:52;;;;;;;11.43;10.20;;;;;;;;;;5025689;28;20193;-85
2023/01/28 08:45:21;;;;;;;11.77;10.40;;;;;;;;;;5021632;28;20209;-88
2023/01/28 08:47:48;;;;;;;11.73;10.53;;;;;;;;;;5030592;28;20876;-87
2023/01/28 08:50:14;;;;;;;12.43;10.43;;;;;;;;;;5028081;28;20432;-86
2023/01/28 08:52:43;;;;;;;11.27;10.17;;;;;;;;;;5029474;28;20231;-82
2023/01/28 08:55:09;;;;;;;11.50;10.30;;;;;;;;;;5035833;28;20253;-85
2023/01/28 08:57:35;;;;;;;10.63;9.50;;;;;;;;;;5029600;28;20361;-86
2023/01/28 09:00:01;;;;;;;11.07;9.97;;;;;;;;;;5029305;28;20721;-79
2023/01/28 09:02:27;;;;;;;12.77;11.03;;;;;;;;;;5027506;28;21669;-84
2023/01/28 09:04:53;;;;;;;12.10;10.73;;;;;;;;;;5030417;28;20194;-80
2023/01/28 09:07:19;;;;;;;12.10;10.87;;;;;;;;;;5036626;28;20175;-83
2023/01/28 09:09:45;;;;;;;11.77;10.33;;;;;;;;;;5034365;28;20185;-83
2023/01/28 09:12:11;;;;;;;11.50;10.30;;;;;;;;;;5032120;28;20331;-84
2023/01/28 09:14:37;;;;;;;13.40;10.53;;;;;;;;;;5034255;28;20545;-84
2023/01/28 09:17:06;;;;;;;13.27;10.97;;;;;;;;;;5031153;28;20432;-86
2023/01/28 09:19:32;;;;;;;13.03;11.63;;;;;;;;;;5029718;28;20188;-85
2023/01/28 09:21:58;;;;;;;12.60;11.27;;;;;;;;;;5026885;28;20544;-86
2023/01/28 09:24:34;;;;;;;12.07;10.70;;;;;;;;;;5021688;28;20669;-86
2023/01/28 09:27:00;;;;;;;13.07;11.70;;;;;;;;;;5037023;28;20181;-84
2023/01/28 09:29:27;;;;;;;15.03;11.47;;;;;;;;;;5031832;28;20429;-78
2023/01/28 09:31:53;;;;;;;12.43;11.13;;;;;;;;;;5043227;28;20433;-84
2023/01/28 09:34:19;;;;;;;13.97;11.50;;;;;;;;;;5030750;28;20288;-84
2023/01/28 09:36:48;;;;;;;12.73;10.93;;;;;;;;;;5033851;28;20467;-85
2023/01/28 09:39:14;;;;;;;13.73;12.13;;;;;;;;;;5035248;28;20490;-83
2023/01/28 09:42:04;;;;;;;13.27;11.87;;;;;;;;;;5034357;28;20425;-85
2023/01/28 09:44:41;;;;;;;14.13;12.63;;;;;;;;;;5005723;28;20440;-84
2023/01/28 09:47:14;;;;;;;13.10;11.23;;;;;;;;;;5031124;28;20201;-89
2023/01/28 09:49:42;;;;;;;15.87;12.37;;;;;;;;;;5043449;28;20436;-84
2023/01/28 09:52:12;;;;;;;15.70;12.87;;;;;;;;;;5029436;28;20193;-85
2023/01/28 09:54:44;;;;;;;13.87;12.10;;;;;;;;;;5032205;28;20314;-85
2023/01/28 09:57:22;;;;;;;14.07;12.30;;;;;;;;;;5033618;28;20281;-84
2023/01/28 09:59:48;;;;;;;14.33;12.73;;;;;;;;;;5037433;28;20440;-81
2023/01/28 10:02:24;;;;;;;14.17;11.83;;;;;;;;;;5025754;28;20205;-84
2023/01/28 10:04:57;;;;;;;14.07;11.77;;;;;;;;;;5044018;28;20966;-86
2023/01/28 10:07:43;;;;;;;14.10;11.80;;;;;;;;;;5029655;28;20178;-86
2023/01/28 10:10:12;;;;;;;13.47;10.97;;;;;;;;;;5017651;28;20194;-86
2023/01/28 10:12:38;;;;;;;14.37;11.77;;;;;;;;;;5041261;28;20531;-86
2023/01/28 10:15:23;;;;;;;15.53;13.07;;;;;;;;;;5022694;28;20253;-86
2023/01/28 10:17:51;;;;;;;13.83;11.83;;;;;;;;;;5026830;28;20321;-86
2023/01/28 10:20:24;;;;;;;14.37;12.63;;;;;;;;;;5047394;28;20432;-86
2023/01/28 10:23:00;;;;;;;16.40;13.13;;;;;;;;;;5034894;28;20308;-85
2023/01/28 10:25:28;;;;;;;13.70;12.23;;;;;;;;;;5033080;28;20219;-86
2023/01/28 10:27:54;;;;;;;13.83;12.40;;;;;;;;;;5025421;28;20182;-84
2023/01/28 10:30:22;;;;;;;16.20;12.20;;;;;;;;;;5032653;28;20236;-85
2023/01/28 10:33:23;;;;;;;13.77;11.70;;;;;;;;;;5033189;28;20277;-86
2023/01/28 10:35:50;;;;;;;14.77;12.90;;;;;;;;;;4961494;28;20428;-85
2023/01/28 10:38:19;;;;;;;13.10;10.93;;;;;;;;;;5012782;28;20452;-86
2023/01/28 10:40:48;;;;;;;14.30;11.83;;;;;;;;;;5044923;28;20190;-85
2023/01/28 10:43:24;;;;;;;13.47;11.83;;;;;;;;;;5032111;28;20277;-86
2023/01/28 10:45:50;;;;;;;13.90;11.43;;;;;;;;;;5027408;28;20685;-85
2023/01/28 10:48:22;;;;;;;13.27;11.83;;;;;;;;;;5027922;28;20190;-85
2023/01/28 10:50:53;;;;;;;14.00;12.50;;;;;;;;;;5027202;28;21064;-86
2023/01/28 10:53:19;;;;;;;13.70;12.20;;;;;;;;;;5047581;28;20492;-85
2023/01/28 10:55:53;;;;;;;13.83;12.37;;;;;;;;;;5031363;28;21147;-85
2023/01/28 10:58:21;;;;;;;15.03;12.53;;;;;;;;;;5031762;28;20307;-85
2023/01/28 11:00:53;;;;;;;12.87;11.47;;;;;;;;;;5049795;28;20219;-85
2023/01/28 11:03:19;;;;;;;16.27;11.80;;;;;;;;;;5046798;28;20472;-85
2023/01/28 11:05:52;;;;;;;13.47;11.57;;;;;;;;;;5049526;28;20925;-85
2023/01/28 11:08:19;;;;;;;13.63;11.47;;;;;;;;;;5051328;28;20249;-84
2023/01/28 11:10:46;;;;;;;14.57;12.00;;;;;;;;;;5033223;28;20213;-84
2023/01/28 11:13:18;;;;;;;13.50;11.87;;;;;;;;;;5029672;28;20214;-83
2023/01/28 11:15:52;;;;;;;13.73;12.07;;;;;;;;;;5031433;28;20252;-85
2023/01/28 11:18:29;;;;;;;13.13;11.30;;;;;;;;;;5033240;28;20186;-86
2023/01/28 11:20:58;;;;;;;12.80;11.17;;;;;;;;;;5027984;28;20186;-83
2023/01/28 11:23:28;;;;;;;13.37;11.53;;;;;;;;;;5033224;28;20238;-84
2023/01/28 11:26:05;;;;;;;13.73;12.27;;;;;;;;;;5032013;28;20448;-87
2023/01/28 11:28:31;;;;;;;13.07;11.67;;;;;;;;;;5030352;28;20724;-85
2023/01/28 11:30:58;;;;;;;12.00;10.70;;;;;;;;;;5025431;28;20218;-84
2023/01/28 11:33:45;;;;;;;13.43;10.87;;;;;;;;;;5024340;28;20609;-84
2023/01/28 11:36:15;;;;;;;15.20;11.47;;;;;;;;;;5024812;28;20281;-86
2023/01/28 11:38:52;;;;;;;12.70;11.30;;;;;;;;;;5030347;28;20212;-84
2023/01/28 11:41:22;;;;;;;12.50;11.20;;;;;;;;;;5026239;28;20416;-83
2023/01/28 11:43:49;;;;;;;12.87;10.97;;;;;;;;;;5029698;28;20439;-83
2023/01/28 11:46:18;;;;;;;12.07;10.63;;;;;;;;;;5032379;28;20550;-84
2023/01/28 11:48:50;;;;;;;13.63;10.67;;;;;;;;;;5032154;28;20671;-87
2023/01/28 11:51:23;;;;;;;13.77;11.40;;;;;;;;;;5043673;28;20201;-85
2023/01/28 11:53:54;;;;;;;20.83;11.37;;;;;;;;;;5030198;28;20217;-84
2023/01/28 11:56:26;;;;;;;19.70;11.47;;;;;;;;;;5044297;28;20177;-82
2023/01/28 11:59:18;;;;;;;17.07;11.93;;;;;;;;;;5044764;28;20226;-78
2023/01/28 12:01:57;;;;;;;15.33;12.83;;;;;;;;;;5029221;28;20174;-78
2023/01/28 12:04:29;;;;;;;23.77;11.83;;;;;;;;;;5029393;28;20186;-79
2023/01/28 12:07:14;;;;;;;15.23;11.00;;;;;;;;;;5027933;28;20185;-79
2023/01/28 12:09:43;;;;;;;15.17;10.57;;;;;;;;;;5046856;28;20663;-78
2023/01/28 12:12:18;;;;;;;15.20;11.77;;;;;;;;;;5032098;28;20184;-80
2023/01/28 12:15:03;;;;;;;15.43;10.93;;;;;;;;;;5046051;28;20165;-85
2023/01/28 12:17:35;;;;;;;13.83;11.37;;;;;;;;;;5031983;28;20439;-85
2023/01/28 12:20:04;;;;;;;13.43;11.37;;;;;;;;;;5031074;28;20669;-84
2023/01/28 12:22:31;;;;;;;13.97;11.00;;;;;;;;;;5032144;28;20429;-86
2023/01/28 12:24:57;;;;;;;14.17;11.27;;;;;;;;;;5045944;28;20201;-84
2023/01/28 12:27:34;;;;;;;12.10;10.80;;;;;;;;;;5030684;28;20731;-84
2023/01/28 12:30:04;;;;;;;13.13;10.17;;;;;;;;;;5041647;28;20227;-84
2023/01/28 12:32:38;;;;;;;13.17;10.37;;;;;;;;;;5028568;28;20791;-84
2023/01/28 12:35:10;;;;;;;14.87;9.97;;;;;;;;;;5046474;28;20182;-85
2023/01/28 12:37:55;;;;;;;13.63;10.27;;;;;;;;;;5029024;28;20185;-83
2023/01/28 12:40:32;;;;;;;13.03;10.63;;;;;;;;;;5026988;28;20208;-84
2023/01/28 12:43:21;;;;;;;12.90;10.83;;;;;;;;;;5029675;28;20212;-84
2023/01/28 12:45:51;;;;;;;12.33;11.03;;;;;;;;;;5032052;28;20220;-83
2023/01/28 12:48:20;;;;;;;12.57;11.13;;;;;;;;;;5050264;28;20189;-84
2023/01/28 12:50:48;;;;;;;11.67;10.40;;;;;;;;;;5040838;28;20212;-85
2023/01/28 12:53:37;;;;;;;12.60;11.07;;;;;;;;;;5041863;28;20217;-84
2023/01/28 12:56:08;;;;;;;12.67;10.67;;;;;;;;;;5031070;28;20218;-84
2023/01/28 12:58:54;;;;;;;12.90;11.23;;;;;;;;;;5031629;28;20190;-85
2023/01/28 13:01:36;;;;;;;12.77;11.17;;;;;;;;;;4995211;28;20416;-83
2023/01/28 13:04:12;;;;;;;14.60;12.37;;;;;;;;;;5052228;28;20170;-85
2023/01/28 13:06:44;;;;;;;12.53;11.23;;;;;;;;;;5033384;28;20209;-83
2023/01/28 13:09:13;;;;;;;13.87;12.37;;;;;;;;;;5043069;28;20178;-84
2023/01/28 13:11:40;;;;;;;13.87;11.73;;;;;;;;;;5033439;28;20236;-84
2023/01/28 13:14:06;;;;;;;13.63;11.80;;;;;;;;;;5032646;28;20186;-84
2023/01/28 13:16:33;;;;;;;13.10;11.77;;;;;;;;;;5045750;28;20657;-84
2023/01/28 13:19:22;;;;;;;14.87;12.93;;;;;;;;;;5032727;28;20228;-84
2023/01/28 13:21:48;;;;;;;14.50;12.33;;;;;;;;;;5035716;28;20657;-83
2023/01/28 13:24:14;;;;;;;16.53;12.20;;;;;;;;;;5037778;28;20204;-83
2023/01/28 13:26:46;;;;;;;13.97;12.03;;;;;;;;;;5036257;28;20194;-84
2023/01/28 13:29:15;;;;;;;13.50;11.73;;;;;;;;;;5035145;28;20630;-84
2023/01/28 13:31:42;;;;;;;13.37;11.33;;;;;;;;;;5037262;28;20610;-82
2023/01/28 13:34:15;;;;;;;15.67;13.20;;;;;;;;;;5034760;28;20190;-84
2023/01/28 13:36:47;;;;;;;15.50;13.50;;;;;;;;;;5029980;28;20188;-84
2023/01/28 13:39:13;;;;;;;13.97;12.47;;;;;;;;;;5045012;28;20205;-83
2023/01/28 13:41:47;;;;;;;13.63;12.20;;;;;;;;;;5029595;28;20558;-83
2023/01/28 13:44:26;;;;;;;14.47;12.93;;;;;;;;;;5043378;28;20178;-83
2023/01/28 13:46:53;;;;;;;13.70;12.13;;;;;;;;;;5034248;28;20274;-85
2023/01/28 13:49:22;;;;;;;14.33;12.90;;;;;;;;;;5046505;28;20178;-83
2023/01/28 13:52:10;;;;;;;13.57;12.00;;;;;;;;;;5037766;28;20177;-83
2023/01/28 13:54:38;;;;;;;14.23;12.73;;;;;;;;;;5036129;28;20229;-83
2023/01/28 13:57:14;;;;;;;14.63;13.10;;;;;;;;;;5034644;28;20620;-83
2023/01/28 13:59:40;;;;;;;14.93;13.20;;;;;;;;;;5043068;28;20177;-83
2023/01/28 14:02:25;;;;;;;14.97;13.10;;;;;;;;;;5032826;28;20185;-82
2023/01/28 14:04:57;;;;;;;12.93;11.60;;;;;;;;;;5042703;28;20209;-82
2023/01/28 14:07:42;;;;;;;14.27;12.77;;;;;;;;;;5028821;28;20182;-83
2023/01/28 14:10:17;;;;;;;15.03;13.43;;;;;;;;;;5049848;28;20276;-83
2023/01/28 14:12:46;;;;;;;15.53;13.60;;;;;;;;;;5030957;28;20618;-83
2023/01/28 14:15:21;;;;;;;15.03;13.17;;;;;;;;;;5033352;28;20197;-83
2023/01/28 14:17:53;;;;;;;15.10;13.53;;;;;;;;;;5045249;28;20185;-85
2023/01/28 14:20:22;;;;;;;15.50;13.90;;;;;;;;;;5030476;28;20182;-83
2023/01/28 14:22:49;;;;;;;15.07;13.43;;;;;;;;;;5034031;28;20198;-83
2023/01/28 14:25:41;;;;;;;14.77;13.27;;;;;;;;;;5033872;28;20204;-84
2023/01/28 14:28:09;;;;;;;14.10;12.60;;;;;;;;;;5003286;28;20201;-84
2023/01/28 14:30:43;;;;;;;14.57;12.77;;;;;;;;;;5042304;28;20185;-83
2023/01/28 14:33:10;;;;;;;14.80;13.30;;;;;;;;;;5032916;28;20258;-83
2023/01/28 14:35:38;;;;;;;17.73;14.30;;;;;;;;;;5029866;28;20189;-83
2023/01/28 14:38:09;;;;;;;14.60;13.13;;;;;;;;;;5040483;28;20261;-83
2023/01/28 14:40:37;;;;;;;14.30;12.80;;;;;;;;;;5033443;28;20196;-83
2023/01/28 14:43:05;;;;;;;15.70;14.10;;;;;;;;;;5042998;28;20209;-82
2023/01/28 14:45:42;;;;;;;14.57;12.93;;;;;;;;;;5034992;28;20657;-82
2023/01/28 14:48:08;;;;;;;14.77;13.00;;;;;;;;;;5036048;28;20189;-84
2023/01/28 14:50:39;;;;;;;16.80;13.77;;;;;;;;;;5037995;28;20174;-83
2023/01/28 14:53:05;;;;;;;15.20;13.10;;;;;;;;;;5036052;28;20529;-83
2023/01/28 14:55:43;;;;;;;15.60;13.07;;;;;;;;;;5035655;28;20194;-82
2023/01/28 14:58:15;;;;;;;15.43;13.03;;;;;;;;;;5041571;28;20606;-82
2023/01/28 15:00:52;;;;;;;14.10;12.70;;;;;;;;;;5049198;28;20173;-82
2023/01/28 15:03:18;;;;;;;15.50;13.40;;;;;;;;;;5032496;28;20640;-82
2023/01/28 15:05:44;;;;;;;14.30;12.80;;;;;;;;;;5032687;28;20297;-82
2023/01/28 15:08:20;;;;;;;15.10;13.50;;;;;;;;;;5033283;28;20181;-82